Terminal Aerodrome Forecast
Issued by NWS

Home | Current Version | Previous Version | Text Only | Print | Product List | Glossary On
Versions: 1 2 3 4 5 6 7 8 9 10 11 12 13 14 15 16
000
FTUS43 KAPX 012320
TAFPLN
TAF
KPLN 012320Z 0200/0224 13007KT P6SM OVC090
     FM020200 06006KT P6SM SCT070
     FM021700 01006KT P6SM FEW120=

USA.gov is the U.S. government's official web portal to all federal, state and local government web resources and services.